sensor_id;sensor_type;location;lat;lon;timestamp;P1;durP1;ratioP1;P2;durP2;ratioP2
15273;SDS011;7738;49.532;11.156;2022-12-07T00:02:07;10.85;;;7.68;;
15273;SDS011;7738;49.532;11.156;2022-12-07T00:04:40;12.97;;;7.33;;
15273;SDS011;7738;49.532;11.156;2022-12-07T00:07:10;11.47;;;7.10;;
15273;SDS011;7738;49.532;11.156;2022-12-07T00:09:41;10.43;;;7.50;;
15273;SDS011;7738;49.532;11.156;2022-12-07T00:12:11;10.48;;;7.70;;
15273;SDS011;7738;49.532;11.156;2022-12-07T00:14:42;13.13;;;7.32;;
15273;SDS011;7738;49.532;11.156;2022-12-07T00:17:12;12.03;;;8.13;;
15273;SDS011;7738;49.532;11.156;2022-12-07T00:19:45;11.50;;;7.37;;
15273;SDS011;7738;49.532;11.156;2022-12-07T00:22:15;10.97;;;7.57;;
15273;SDS011;7738;49.532;11.156;2022-12-07T00:24:45;12.03;;;7.50;;
15273;SDS011;7738;49.532;11.156;2022-12-07T00:27:16;12.10;;;9.23;;
15273;SDS011;7738;49.532;11.156;2022-12-07T00:29:46;11.27;;;7.87;;
15273;SDS011;7738;49.532;11.156;2022-12-07T00:32:17;12.23;;;8.37;;
15273;SDS011;7738;49.532;11.156;2022-12-07T00:34:50;8.30;;;6.57;;
15273;SDS011;7738;49.532;11.156;2022-12-07T00:37:20;12.63;;;8.77;;
15273;SDS011;7738;49.532;11.156;2022-12-07T00:39:51;12.50;;;8.43;;
15273;SDS011;7738;49.532;11.156;2022-12-07T00:42:21;13.10;;;8.87;;
15273;SDS011;7738;49.532;11.156;2022-12-07T00:44:51;12.13;;;8.40;;
15273;SDS011;7738;49.532;11.156;2022-12-07T00:47:21;12.83;;;7.80;;
15273;SDS011;7738;49.532;11.156;2022-12-07T00:49:54;16.13;;;8.67;;
15273;SDS011;7738;49.532;11.156;2022-12-07T00:52:25;12.02;;;8.50;;
15273;SDS011;7738;49.532;11.156;2022-12-07T00:54:56;10.80;;;7.57;;
15273;SDS011;7738;49.532;11.156;2022-12-07T00:57:26;15.43;;;8.60;;
15273;SDS011;7738;49.532;11.156;2022-12-07T00:59:56;11.27;;;7.60;;
15273;SDS011;7738;49.532;11.156;2022-12-07T01:02:27;10.67;;;7.37;;
15273;SDS011;7738;49.532;11.156;2022-12-07T01:05:00;10.90;;;7.83;;
15273;SDS011;7738;49.532;11.156;2022-12-07T01:07:30;10.43;;;7.40;;
15273;SDS011;7738;49.532;11.156;2022-12-07T01:10:01;12.60;;;8.87;;
15273;SDS011;7738;49.532;11.156;2022-12-07T01:12:31;9.40;;;7.17;;
15273;SDS011;7738;49.532;11.156;2022-12-07T01:15:01;14.00;;;8.10;;
15273;SDS011;7738;49.532;11.156;2022-12-07T01:17:32;11.40;;;8.00;;
15273;SDS011;7738;49.532;11.156;2022-12-07T01:20:05;14.77;;;8.43;;
15273;SDS011;7738;49.532;11.156;2022-12-07T01:22:36;14.93;;;9.10;;
15273;SDS011;7738;49.532;11.156;2022-12-07T01:25:07;14.97;;;8.47;;
15273;SDS011;7738;49.532;11.156;2022-12-07T01:27:38;11.90;;;8.63;;
15273;SDS011;7738;49.532;11.156;2022-12-07T01:30:09;14.13;;;7.70;;
15273;SDS011;7738;49.532;11.156;2022-12-07T01:32:39;14.93;;;7.50;;
15273;SDS011;7738;49.532;11.156;2022-12-07T01:35:12;12.33;;;8.07;;
15273;SDS011;7738;49.532;11.156;2022-12-07T01:37:43;13.00;;;8.23;;
15273;SDS011;7738;49.532;11.156;2022-12-07T01:40:13;12.88;;;8.02;;
15273;SDS011;7738;49.532;11.156;2022-12-07T01:42:44;12.85;;;8.98;;
15273;SDS011;7738;49.532;11.156;2022-12-07T01:48:08;13.80;;;8.17;;
15273;SDS011;7738;49.532;11.156;2022-12-07T01:50:44;10.77;;;8.20;;
15273;SDS011;7738;49.532;11.156;2022-12-07T01:53:17;12.02;;;8.48;;
15273;SDS011;7738;49.532;11.156;2022-12-07T01:55:47;11.65;;;7.97;;
15273;SDS011;7738;49.532;11.156;2022-12-07T02:00:52;11.45;;;7.78;;
15273;SDS011;7738;49.532;11.156;2022-12-07T02:03:24;18.83;;;9.35;;
15273;SDS011;7738;49.532;11.156;2022-12-07T02:06:00;17.02;;;8.55;;
15273;SDS011;7738;49.532;11.156;2022-12-07T02:08:31;14.23;;;9.03;;
15273;SDS011;7738;49.532;11.156;2022-12-07T02:11:01;13.17;;;9.23;;
15273;SDS011;7738;49.532;11.156;2022-12-07T02:13:33;14.00;;;7.97;;
15273;SDS011;7738;49.532;11.156;2022-12-07T02:16:13;14.43;;;9.53;;
15273;SDS011;7738;49.532;11.156;2022-12-07T02:18:55;13.50;;;8.90;;
15273;SDS011;7738;49.532;11.156;2022-12-07T02:21:40;13.50;;;8.32;;
15273;SDS011;7738;49.532;11.156;2022-12-07T02:24:25;15.60;;;8.53;;
15273;SDS011;7738;49.532;11.156;2022-12-07T02:30:12;13.43;;;8.10;;
15273;SDS011;7738;49.532;11.156;2022-12-07T02:32:44;20.23;;;10.73;;
15273;SDS011;7738;49.532;11.156;2022-12-07T02:35:21;15.40;;;9.50;;
15273;SDS011;7738;49.532;11.156;2022-12-07T02:37:58;17.17;;;9.70;;
15273;SDS011;7738;49.532;11.156;2022-12-07T02:40:31;14.70;;;9.33;;
15273;SDS011;7738;49.532;11.156;2022-12-07T02:43:04;15.00;;;9.32;;
15273;SDS011;7738;49.532;11.156;2022-12-07T02:45:41;17.08;;;9.18;;
15273;SDS011;7738;49.532;11.156;2022-12-07T02:48:14;17.00;;;9.90;;
15273;SDS011;7738;49.532;11.156;2022-12-07T02:50:48;16.70;;;10.30;;
15273;SDS011;7738;49.532;11.156;2022-12-07T02:53:28;16.15;;;9.57;;
15273;SDS011;7738;49.532;11.156;2022-12-07T02:55:59;17.05;;;10.75;;
15273;SDS011;7738;49.532;11.156;2022-12-07T02:58:32;21.93;;;11.37;;
15273;SDS011;7738;49.532;11.156;2022-12-07T03:01:08;18.27;;;9.77;;
15273;SDS011;7738;49.532;11.156;2022-12-07T03:03:43;18.67;;;9.90;;
15273;SDS011;7738;49.532;11.156;2022-12-07T03:06:19;15.30;;;9.52;;
15273;SDS011;7738;49.532;11.156;2022-12-07T03:08:52;17.60;;;10.18;;
15273;SDS011;7738;49.532;11.156;2022-12-07T03:11:25;18.10;;;10.10;;
15273;SDS011;7738;49.532;11.156;2022-12-07T03:14:00;16.63;;;9.63;;
15273;SDS011;7738;49.532;11.156;2022-12-07T03:16:35;14.57;;;9.07;;
15273;SDS011;7738;49.532;11.156;2022-12-07T03:19:08;14.57;;;9.10;;
15273;SDS011;7738;49.532;11.156;2022-12-07T03:21:43;15.93;;;9.10;;
15273;SDS011;7738;49.532;11.156;2022-12-07T03:24:17;13.83;;;9.43;;
15273;SDS011;7738;49.532;11.156;2022-12-07T03:26:55;18.58;;;9.38;;
15273;SDS011;7738;49.532;11.156;2022-12-07T03:29:31;19.80;;;11.10;;
15273;SDS011;7738;49.532;11.156;2022-12-07T03:32:08;17.60;;;10.33;;
15273;SDS011;7738;49.532;11.156;2022-12-07T03:34:41;19.23;;;10.13;;
15273;SDS011;7738;49.532;11.156;2022-12-07T03:37:15;18.50;;;10.68;;
15273;SDS011;7738;49.532;11.156;2022-12-07T03:39:49;20.35;;;9.73;;
15273;SDS011;7738;49.532;11.156;2022-12-07T03:42:27;17.13;;;10.30;;
15273;SDS011;7738;49.532;11.156;2022-12-07T03:44:58;16.67;;;9.83;;
15273;SDS011;7738;49.532;11.156;2022-12-07T03:47:32;22.03;;;10.90;;
15273;SDS011;7738;49.532;11.156;2022-12-07T03:50:05;17.50;;;9.17;;
15273;SDS011;7738;49.532;11.156;2022-12-07T03:52:39;19.77;;;10.40;;
15273;SDS011;7738;49.532;11.156;2022-12-07T03:55:13;17.80;;;10.70;;
15273;SDS011;7738;49.532;11.156;2022-12-07T03:57:48;16.60;;;10.20;;
15273;SDS011;7738;49.532;11.156;2022-12-07T04:00:19;16.37;;;10.03;;
15273;SDS011;7738;49.532;11.156;2022-12-07T04:02:53;17.33;;;10.10;;
15273;SDS011;7738;49.532;11.156;2022-12-07T04:05:25;17.10;;;11.10;;
15273;SDS011;7738;49.532;11.156;2022-12-07T04:07:55;14.27;;;8.67;;
15273;SDS011;7738;49.532;11.156;2022-12-07T04:10:25;18.57;;;9.60;;
15273;SDS011;7738;49.532;11.156;2022-12-07T04:12:56;15.47;;;9.23;;
15273;SDS011;7738;49.532;11.156;2022-12-07T04:15:26;14.93;;;8.73;;
15273;SDS011;7738;49.532;11.156;2022-12-07T04:17:59;16.43;;;8.63;;
15273;SDS011;7738;49.532;11.156;2022-12-07T04:20:29;16.40;;;9.57;;
15273;SDS011;7738;49.532;11.156;2022-12-07T04:22:59;16.80;;;10.27;;
15273;SDS011;7738;49.532;11.156;2022-12-07T04:25:30;16.83;;;9.30;;
15273;SDS011;7738;49.532;11.156;2022-12-07T04:28:00;18.50;;;9.83;;
15273;SDS011;7738;49.532;11.156;2022-12-07T04:30:30;14.67;;;8.40;;
15273;SDS011;7738;49.532;11.156;2022-12-07T04:33:03;16.97;;;9.57;;
15273;SDS011;7738;49.532;11.156;2022-12-07T04:35:35;16.75;;;9.30;;
15273;SDS011;7738;49.532;11.156;2022-12-07T04:38:05;20.63;;;10.77;;
15273;SDS011;7738;49.532;11.156;2022-12-07T04:40:35;21.63;;;9.83;;
15273;SDS011;7738;49.532;11.156;2022-12-07T04:43:06;15.73;;;10.17;;
15273;SDS011;7738;49.532;11.156;2022-12-07T04:48:25;20.73;;;10.30;;
15273;SDS011;7738;49.532;11.156;2022-12-07T04:50:55;19.03;;;11.07;;
15273;SDS011;7738;49.532;11.156;2022-12-07T04:53:25;20.87;;;11.10;;
15273;SDS011;7738;49.532;11.156;2022-12-07T04:55:55;22.23;;;12.37;;
15273;SDS011;7738;49.532;11.156;2022-12-07T04:58:27;21.47;;;10.60;;
15273;SDS011;7738;49.532;11.156;2022-12-07T05:00:57;18.90;;;10.90;;
15273;SDS011;7738;49.532;11.156;2022-12-07T05:03:30;22.30;;;11.00;;
15273;SDS011;7738;49.532;11.156;2022-12-07T05:06:00;18.83;;;10.70;;
15273;SDS011;7738;49.532;11.156;2022-12-07T05:08:38;17.93;;;9.93;;
15273;SDS011;7738;49.532;11.156;2022-12-07T05:11:09;20.27;;;11.20;;
15273;SDS011;7738;49.532;11.156;2022-12-07T05:14:01;22.20;;;10.53;;
15273;SDS011;7738;49.532;11.156;2022-12-07T05:16:32;19.33;;;10.20;;
15273;SDS011;7738;49.532;11.156;2022-12-07T05:19:06;21.00;;;11.50;;
15273;SDS011;7738;49.532;11.156;2022-12-07T05:21:38;20.15;;;10.23;;
15273;SDS011;7738;49.532;11.156;2022-12-07T05:24:10;17.23;;;10.50;;
15273;SDS011;7738;49.532;11.156;2022-12-07T05:26:40;26.13;;;12.53;;
15273;SDS011;7738;49.532;11.156;2022-12-07T05:29:11;24.60;;;13.07;;
15273;SDS011;7738;49.532;11.156;2022-12-07T05:31:41;27.97;;;12.77;;
15273;SDS011;7738;49.532;11.156;2022-12-07T05:34:14;25.80;;;11.87;;
15273;SDS011;7738;49.532;11.156;2022-12-07T05:36:44;25.87;;;12.53;;
15273;SDS011;7738;49.532;11.156;2022-12-07T05:39:16;26.20;;;13.37;;
15273;SDS011;7738;49.532;11.156;2022-12-07T05:41:46;24.03;;;13.73;;
15273;SDS011;7738;49.532;11.156;2022-12-07T05:44:29;25.73;;;13.00;;
15273;SDS011;7738;49.532;11.156;2022-12-07T05:46:59;23.93;;;12.80;;
15273;SDS011;7738;49.532;11.156;2022-12-07T05:49:32;28.50;;;13.37;;
15273;SDS011;7738;49.532;11.156;2022-12-07T05:52:02;24.47;;;12.93;;
15273;SDS011;7738;49.532;11.156;2022-12-07T05:54:33;24.73;;;12.40;;
15273;SDS011;7738;49.532;11.156;2022-12-07T05:57:03;27.10;;;12.47;;
15273;SDS011;7738;49.532;11.156;2022-12-07T05:59:33;24.40;;;13.67;;
15273;SDS011;7738;49.532;11.156;2022-12-07T06:02:02;25.20;;;12.37;;
15273;SDS011;7738;49.532;11.156;2022-12-07T06:04:37;26.43;;;13.00;;
15273;SDS011;7738;49.532;11.156;2022-12-07T06:07:08;25.30;;;13.95;;
15273;SDS011;7738;49.532;11.156;2022-12-07T06:09:39;22.73;;;12.53;;
15273;SDS011;7738;49.532;11.156;2022-12-07T06:12:09;28.60;;;13.23;;
15273;SDS011;7738;49.532;11.156;2022-12-07T06:17:35;28.87;;;12.77;;
15273;SDS011;7738;49.532;11.156;2022-12-07T06:20:08;22.33;;;11.77;;
15273;SDS011;7738;49.532;11.156;2022-12-07T06:22:41;25.50;;;14.23;;
15273;SDS011;7738;49.532;11.156;2022-12-07T06:25:12;26.60;;;15.07;;
15273;SDS011;7738;49.532;11.156;2022-12-07T06:27:42;30.73;;;14.47;;
15273;SDS011;7738;49.532;11.156;2022-12-07T06:30:12;32.53;;;14.90;;
15273;SDS011;7738;49.532;11.156;2022-12-07T06:32:43;28.70;;;14.07;;
15273;SDS011;7738;49.532;11.156;2022-12-07T06:35:15;29.60;;;13.60;;
15273;SDS011;7738;49.532;11.156;2022-12-07T06:37:46;24.10;;;13.90;;
15273;SDS011;7738;49.532;11.156;2022-12-07T06:40:16;25.07;;;13.47;;
15273;SDS011;7738;49.532;11.156;2022-12-07T06:42:47;30.60;;;14.00;;
15273;SDS011;7738;49.532;11.156;2022-12-07T06:45:17;25.10;;;12.33;;
15273;SDS011;7738;49.532;11.156;2022-12-07T06:47:48;27.00;;;13.77;;
15273;SDS011;7738;49.532;11.156;2022-12-07T06:50:21;24.00;;;11.97;;
15273;SDS011;7738;49.532;11.156;2022-12-07T06:52:51;28.63;;;13.73;;
15273;SDS011;7738;49.532;11.156;2022-12-07T06:55:22;29.70;;;14.50;;
15273;SDS011;7738;49.532;11.156;2022-12-07T06:57:52;23.20;;;13.37;;
15273;SDS011;7738;49.532;11.156;2022-12-07T07:00:22;23.57;;;13.23;;
15273;SDS011;7738;49.532;11.156;2022-12-07T07:02:52;28.03;;;13.70;;
15273;SDS011;7738;49.532;11.156;2022-12-07T07:05:25;27.63;;;14.48;;
15273;SDS011;7738;49.532;11.156;2022-12-07T07:07:55;28.17;;;13.10;;
15273;SDS011;7738;49.532;11.156;2022-12-07T07:10:46;30.57;;;13.83;;
15273;SDS011;7738;49.532;11.156;2022-12-07T07:13:16;25.53;;;12.23;;
15273;SDS011;7738;49.532;11.156;2022-12-07T07:15:46;34.93;;;18.47;;
15273;SDS011;7738;49.532;11.156;2022-12-07T07:18:16;25.97;;;13.63;;
15273;SDS011;7738;49.532;11.156;2022-12-07T07:20:49;25.73;;;12.70;;
15273;SDS011;7738;49.532;11.156;2022-12-07T07:23:20;25.97;;;14.40;;
15273;SDS011;7738;49.532;11.156;2022-12-07T07:25:50;26.27;;;12.87;;
15273;SDS011;7738;49.532;11.156;2022-12-07T07:28:21;30.07;;;14.50;;
15273;SDS011;7738;49.532;11.156;2022-12-07T07:30:51;21.77;;;12.83;;
15273;SDS011;7738;49.532;11.156;2022-12-07T07:33:21;24.73;;;13.27;;
15273;SDS011;7738;49.532;11.156;2022-12-07T07:35:54;29.40;;;13.03;;
15273;SDS011;7738;49.532;11.156;2022-12-07T07:38:24;30.13;;;13.53;;
15273;SDS011;7738;49.532;11.156;2022-12-07T07:40:55;26.87;;;13.87;;
15273;SDS011;7738;49.532;11.156;2022-12-07T07:43:25;25.17;;;13.23;;
15273;SDS011;7738;49.532;11.156;2022-12-07T07:45:55;24.10;;;12.93;;
15273;SDS011;7738;49.532;11.156;2022-12-07T07:48:25;22.83;;;13.27;;
15273;SDS011;7738;49.532;11.156;2022-12-07T07:50:58;30.43;;;15.73;;
15273;SDS011;7738;49.532;11.156;2022-12-07T07:53:28;27.83;;;14.57;;
15273;SDS011;7738;49.532;11.156;2022-12-07T07:55:59;23.40;;;13.07;;
15273;SDS011;7738;49.532;11.156;2022-12-07T07:58:29;23.10;;;12.27;;
15273;SDS011;7738;49.532;11.156;2022-12-07T08:01:03;29.87;;;13.43;;
15273;SDS011;7738;49.532;11.156;2022-12-07T08:03:33;26.17;;;14.10;;
15273;SDS011;7738;49.532;11.156;2022-12-07T08:06:06;23.77;;;12.03;;
15273;SDS011;7738;49.532;11.156;2022-12-07T08:08:37;23.10;;;12.90;;
15273;SDS011;7738;49.532;11.156;2022-12-07T08:11:08;26.90;;;13.10;;
15273;SDS011;7738;49.532;11.156;2022-12-07T08:13:39;25.83;;;14.50;;
15273;SDS011;7738;49.532;11.156;2022-12-07T08:16:09;25.63;;;14.27;;
15273;SDS011;7738;49.532;11.156;2022-12-07T08:18:41;26.50;;;14.33;;
15273;SDS011;7738;49.532;11.156;2022-12-07T08:21:15;28.57;;;14.47;;
15273;SDS011;7738;49.532;11.156;2022-12-07T08:23:45;26.87;;;14.67;;
15273;SDS011;7738;49.532;11.156;2022-12-07T08:26:16;26.17;;;12.63;;
15273;SDS011;7738;49.532;11.156;2022-12-07T08:28:46;25.77;;;13.30;;
15273;SDS011;7738;49.532;11.156;2022-12-07T08:31:17;26.20;;;13.57;;
15273;SDS011;7738;49.532;11.156;2022-12-07T08:33:48;22.13;;;11.87;;
15273;SDS011;7738;49.532;11.156;2022-12-07T08:36:21;26.00;;;12.83;;
15273;SDS011;7738;49.532;11.156;2022-12-07T08:38:52;24.42;;;14.05;;
15273;SDS011;7738;49.532;11.156;2022-12-07T08:41:42;28.10;;;12.47;;
15273;SDS011;7738;49.532;11.156;2022-12-07T08:44:12;33.13;;;17.10;;
15273;SDS011;7738;49.532;11.156;2022-12-07T08:46:44;23.87;;;12.87;;
15273;SDS011;7738;49.532;11.156;2022-12-07T08:49:16;26.33;;;13.27;;
15273;SDS011;7738;49.532;11.156;2022-12-07T08:51:50;25.53;;;13.00;;
15273;SDS011;7738;49.532;11.156;2022-12-07T08:54:20;28.20;;;14.60;;
15273;SDS011;7738;49.532;11.156;2022-12-07T08:56:51;26.80;;;14.23;;
15273;SDS011;7738;49.532;11.156;2022-12-07T08:59:25;22.65;;;12.30;;
15273;SDS011;7738;49.532;11.156;2022-12-07T09:01:56;27.80;;;13.23;;
15273;SDS011;7738;49.532;11.156;2022-12-07T09:04:26;22.93;;;12.27;;
15273;SDS011;7738;49.532;11.156;2022-12-07T09:06:59;24.47;;;11.90;;
15273;SDS011;7738;49.532;11.156;2022-12-07T09:09:30;26.08;;;13.20;;
15273;SDS011;7738;49.532;11.156;2022-12-07T09:12:01;21.57;;;11.00;;
15273;SDS011;7738;49.532;11.156;2022-12-07T09:14:31;24.53;;;11.13;;
15273;SDS011;7738;49.532;11.156;2022-12-07T09:17:05;25.90;;;11.13;;
15273;SDS011;7738;49.532;11.156;2022-12-07T09:19:35;18.85;;;10.23;;
15273;SDS011;7738;49.532;11.156;2022-12-07T09:22:08;24.60;;;11.30;;
15273;SDS011;7738;49.532;11.156;2022-12-07T09:24:38;25.90;;;10.23;;
15273;SDS011;7738;49.532;11.156;2022-12-07T09:27:09;23.60;;;10.20;;
15273;SDS011;7738;49.532;11.156;2022-12-07T09:29:40;20.07;;;10.63;;
15273;SDS011;7738;49.532;11.156;2022-12-07T09:32:10;23.10;;;10.60;;
15273;SDS011;7738;49.532;11.156;2022-12-07T09:34:40;18.90;;;10.43;;
15273;SDS011;7738;49.532;11.156;2022-12-07T09:37:13;21.03;;;11.23;;
15273;SDS011;7738;49.532;11.156;2022-12-07T09:39:44;22.73;;;10.63;;
15273;SDS011;7738;49.532;11.156;2022-12-07T09:42:22;20.77;;;11.53;;
15273;SDS011;7738;49.532;11.156;2022-12-07T09:44:57;21.83;;;12.60;;
15273;SDS011;7738;49.532;11.156;2022-12-07T09:47:28;19.47;;;12.70;;
15273;SDS011;7738;49.532;11.156;2022-12-07T09:50:03;15.87;;;9.13;;
15273;SDS011;7738;49.532;11.156;2022-12-07T09:52:37;16.13;;;9.95;;
15273;SDS011;7738;49.532;11.156;2022-12-07T09:55:11;20.63;;;11.77;;
15273;SDS011;7738;49.532;11.156;2022-12-07T09:57:42;22.17;;;10.00;;
15273;SDS011;7738;49.532;11.156;2022-12-07T10:00:14;18.27;;;10.20;;
15273;SDS011;7738;49.532;11.156;2022-12-07T10:02:46;17.00;;;10.10;;
15273;SDS011;7738;49.532;11.156;2022-12-07T10:05:19;19.93;;;9.93;;
15273;SDS011;7738;49.532;11.156;2022-12-07T10:07:56;17.13;;;9.55;;
15273;SDS011;7738;49.532;11.156;2022-12-07T10:10:28;20.73;;;9.67;;
15273;SDS011;7738;49.532;11.156;2022-12-07T10:13:04;19.98;;;11.32;;
15273;SDS011;7738;49.532;11.156;2022-12-07T10:15:43;21.07;;;10.10;;
15273;SDS011;7738;49.532;11.156;2022-12-07T10:18:19;18.00;;;9.83;;
15273;SDS011;7738;49.532;11.156;2022-12-07T10:21:03;20.67;;;9.70;;
15273;SDS011;7738;49.532;11.156;2022-12-07T10:23:42;15.40;;;8.70;;
15273;SDS011;7738;49.532;11.156;2022-12-07T10:26:30;20.20;;;11.00;;
15273;SDS011;7738;49.532;11.156;2022-12-07T10:29:02;18.08;;;9.35;;
15273;SDS011;7738;49.532;11.156;2022-12-07T10:31:43;15.55;;;8.95;;
15273;SDS011;7738;49.532;11.156;2022-12-07T10:34:20;16.80;;;10.10;;
15273;SDS011;7738;49.532;11.156;2022-12-07T10:36:53;23.27;;;11.50;;
15273;SDS011;7738;49.532;11.156;2022-12-07T10:39:26;18.70;;;8.70;;
15273;SDS011;7738;49.532;11.156;2022-12-07T10:41:58;19.27;;;10.00;;
15273;SDS011;7738;49.532;11.156;2022-12-07T10:44:30;18.00;;;10.20;;
15273;SDS011;7738;49.532;11.156;2022-12-07T10:47:08;17.83;;;11.43;;
15273;SDS011;7738;49.532;11.156;2022-12-07T10:53:15;15.50;;;9.53;;
15273;SDS011;7738;49.532;11.156;2022-12-07T10:56:05;17.53;;;9.13;;
15273;SDS011;7738;49.532;11.156;2022-12-07T10:59:02;17.70;;;9.27;;
15273;SDS011;7738;49.532;11.156;2022-12-07T11:01:48;21.37;;;10.87;;
15273;SDS011;7738;49.532;11.156;2022-12-07T11:04:25;17.02;;;10.02;;
15273;SDS011;7738;49.532;11.156;2022-12-07T11:07:02;15.43;;;9.70;;
15273;SDS011;7738;49.532;11.156;2022-12-07T11:12:43;20.37;;;10.63;;
15273;SDS011;7738;49.532;11.156;2022-12-07T11:15:28;17.60;;;9.97;;
15273;SDS011;7738;49.532;11.156;2022-12-07T11:18:06;17.77;;;9.33;;
15273;SDS011;7738;49.532;11.156;2022-12-07T11:20:39;24.53;;;12.57;;
15273;SDS011;7738;49.532;11.156;2022-12-07T11:23:13;20.42;;;10.80;;
15273;SDS011;7738;49.532;11.156;2022-12-07T11:25:47;17.90;;;10.03;;
15273;SDS011;7738;49.532;11.156;2022-12-07T11:28:25;23.70;;;12.07;;
15273;SDS011;7738;49.532;11.156;2022-12-07T11:31:01;23.17;;;11.53;;
15273;SDS011;7738;49.532;11.156;2022-12-07T11:33:38;19.30;;;9.90;;
15273;SDS011;7738;49.532;11.156;2022-12-07T11:36:16;18.92;;;11.23;;
15273;SDS011;7738;49.532;11.156;2022-12-07T11:39:00;21.48;;;10.65;;
15273;SDS011;7738;49.532;11.156;2022-12-07T11:41:33;18.67;;;10.30;;
15273;SDS011;7738;49.532;11.156;2022-12-07T11:44:07;21.48;;;11.32;;
15273;SDS011;7738;49.532;11.156;2022-12-07T11:46:43;19.63;;;10.63;;
15273;SDS011;7738;49.532;11.156;2022-12-07T11:49:16;20.63;;;10.95;;
15273;SDS011;7738;49.532;11.156;2022-12-07T11:54:23;17.08;;;9.35;;
15273;SDS011;7738;49.532;11.156;2022-12-07T11:56:56;24.45;;;10.40;;
15273;SDS011;7738;49.532;11.156;2022-12-07T11:59:31;22.40;;;10.63;;
15273;SDS011;7738;49.532;11.156;2022-12-07T12:02:07;18.27;;;10.35;;
15273;SDS011;7738;49.532;11.156;2022-12-07T12:04:46;22.13;;;13.43;;
15273;SDS011;7738;49.532;11.156;2022-12-07T12:07:21;16.65;;;10.52;;
15273;SDS011;7738;49.532;11.156;2022-12-07T12:10:16;21.13;;;10.90;;
15273;SDS011;7738;49.532;11.156;2022-12-07T12:16:04;20.88;;;9.75;;
15273;SDS011;7738;49.532;11.156;2022-12-07T12:18:53;22.30;;;11.20;;
15273;SDS011;7738;49.532;11.156;2022-12-07T12:21:40;16.52;;;10.45;;
15273;SDS011;7738;49.532;11.156;2022-12-07T12:24:12;20.33;;;10.45;;
15273;SDS011;7738;49.532;11.156;2022-12-07T12:26:48;16.45;;;9.65;;
15273;SDS011;7738;49.532;11.156;2022-12-07T12:32:06;19.52;;;9.60;;
15273;SDS011;7738;49.532;11.156;2022-12-07T12:34:39;16.98;;;9.70;;
15273;SDS011;7738;49.532;11.156;2022-12-07T12:42:50;15.50;;;10.00;;
15273;SDS011;7738;49.532;11.156;2022-12-07T12:45:22;15.73;;;10.20;;
15273;SDS011;7738;49.532;11.156;2022-12-07T12:48:02;16.15;;;9.45;;
15273;SDS011;7738;49.532;11.156;2022-12-07T12:50:33;17.85;;;10.82;;
15273;SDS011;7738;49.532;11.156;2022-12-07T12:53:05;15.70;;;9.20;;
15273;SDS011;7738;49.532;11.156;2022-12-07T12:55:49;20.53;;;10.40;;
15273;SDS011;7738;49.532;11.156;2022-12-07T12:58:28;18.75;;;10.60;;
15273;SDS011;7738;49.532;11.156;2022-12-07T13:04:21;17.10;;;10.13;;
15273;SDS011;7738;49.532;11.156;2022-12-07T13:09:23;17.70;;;9.20;;
15273;SDS011;7738;49.532;11.156;2022-12-07T13:12:01;15.82;;;9.25;;
15273;SDS011;7738;49.532;11.156;2022-12-07T13:23:34;23.77;;;11.23;;
15273;SDS011;7738;49.532;11.156;2022-12-07T13:26:13;19.27;;;9.90;;
15273;SDS011;7738;49.532;11.156;2022-12-07T13:28:45;22.23;;;10.40;;
15273;SDS011;7738;49.532;11.156;2022-12-07T13:31:19;17.42;;;9.68;;
15273;SDS011;7738;49.532;11.156;2022-12-07T13:33:52;15.55;;;9.02;;
15273;SDS011;7738;49.532;11.156;2022-12-07T13:36:23;17.40;;;10.10;;
15273;SDS011;7738;49.532;11.156;2022-12-07T13:38:57;15.60;;;9.13;;
15273;SDS011;7738;49.532;11.156;2022-12-07T13:41:28;17.50;;;9.33;;
15273;SDS011;7738;49.532;11.156;2022-12-07T13:44:00;15.70;;;9.27;;
15273;SDS011;7738;49.532;11.156;2022-12-07T13:46:33;15.73;;;8.43;;
15273;SDS011;7738;49.532;11.156;2022-12-07T13:49:13;15.80;;;9.20;;
15273;SDS011;7738;49.532;11.156;2022-12-07T13:51:46;17.60;;;9.63;;
15273;SDS011;7738;49.532;11.156;2022-12-07T13:54:19;16.50;;;10.30;;
15273;SDS011;7738;49.532;11.156;2022-12-07T13:56:50;15.98;;;9.00;;
15273;SDS011;7738;49.532;11.156;2022-12-07T13:59:21;14.38;;;8.70;;
15273;SDS011;7738;49.532;11.156;2022-12-07T14:01:53;16.73;;;9.00;;
15273;SDS011;7738;49.532;11.156;2022-12-07T14:04:34;20.60;;;8.80;;
15273;SDS011;7738;49.532;11.156;2022-12-07T14:09:58;15.15;;;8.88;;
15273;SDS011;7738;49.532;11.156;2022-12-07T14:12:29;15.20;;;9.48;;
15273;SDS011;7738;49.532;11.156;2022-12-07T14:15:00;14.43;;;10.23;;
15273;SDS011;7738;49.532;11.156;2022-12-07T14:17:32;15.33;;;8.40;;
15273;SDS011;7738;49.532;11.156;2022-12-07T14:20:03;14.97;;;9.20;;
15273;SDS011;7738;49.532;11.156;2022-12-07T14:22:34;14.45;;;8.48;;
15273;SDS011;7738;49.532;11.156;2022-12-07T14:25:21;14.38;;;8.32;;
15273;SDS011;7738;49.532;11.156;2022-12-07T14:27:55;21.33;;;10.47;;
15273;SDS011;7738;49.532;11.156;2022-12-07T14:30:26;16.98;;;9.52;;
15273;SDS011;7738;49.532;11.156;2022-12-07T14:32:57;14.60;;;9.03;;
15273;SDS011;7738;49.532;11.156;2022-12-07T14:35:28;17.13;;;9.97;;
15273;SDS011;7738;49.532;11.156;2022-12-07T14:37:59;19.15;;;10.63;;
15273;SDS011;7738;49.532;11.156;2022-12-07T14:40:32;20.10;;;10.80;;
15273;SDS011;7738;49.532;11.156;2022-12-07T14:43:03;16.53;;;9.97;;
15273;SDS011;7738;49.532;11.156;2022-12-07T14:45:34;15.85;;;10.27;;
15273;SDS011;7738;49.532;11.156;2022-12-07T14:48:06;22.10;;;14.73;;
15273;SDS011;7738;49.532;11.156;2022-12-07T14:51:00;19.88;;;10.25;;
15273;SDS011;7738;49.532;11.156;2022-12-07T14:53:50;16.90;;;10.45;;
15273;SDS011;7738;49.532;11.156;2022-12-07T14:56:25;20.50;;;11.07;;
15273;SDS011;7738;49.532;11.156;2022-12-07T14:58:56;20.00;;;13.47;;
15273;SDS011;7738;49.532;11.156;2022-12-07T15:01:26;15.35;;;10.50;;
15273;SDS011;7738;49.532;11.156;2022-12-07T15:03:59;22.07;;;11.47;;
15273;SDS011;7738;49.532;11.156;2022-12-07T15:06:29;14.45;;;8.88;;
15273;SDS011;7738;49.532;11.156;2022-12-07T15:08:59;17.20;;;8.50;;
15273;SDS011;7738;49.532;11.156;2022-12-07T15:11:33;15.20;;;8.47;;
15273;SDS011;7738;49.532;11.156;2022-12-07T15:14:10;17.10;;;8.97;;
15273;SDS011;7738;49.532;11.156;2022-12-07T15:16:40;11.97;;;8.40;;
15273;SDS011;7738;49.532;11.156;2022-12-07T15:19:31;12.30;;;9.30;;
15273;SDS011;7738;49.532;11.156;2022-12-07T15:22:02;10.73;;;6.87;;
15273;SDS011;7738;49.532;11.156;2022-12-07T15:24:32;9.77;;;6.97;;
15273;SDS011;7738;49.532;11.156;2022-12-07T15:27:05;12.38;;;6.65;;
15273;SDS011;7738;49.532;11.156;2022-12-07T15:29:38;11.20;;;6.43;;
15273;SDS011;7738;49.532;11.156;2022-12-07T15:32:08;13.20;;;7.70;;
15273;SDS011;7738;49.532;11.156;2022-12-07T15:34:38;12.43;;;7.93;;
15273;SDS011;7738;49.532;11.156;2022-12-07T15:37:09;12.07;;;7.30;;
15273;SDS011;7738;49.532;11.156;2022-12-07T15:39:39;12.90;;;6.83;;
15273;SDS011;7738;49.532;11.156;2022-12-07T15:42:12;11.07;;;7.90;;
15273;SDS011;7738;49.532;11.156;2022-12-07T15:44:42;16.10;;;8.47;;
15273;SDS011;7738;49.532;11.156;2022-12-07T15:47:32;12.90;;;8.10;;
15273;SDS011;7738;49.532;11.156;2022-12-07T15:50:22;14.00;;;8.23;;
15273;SDS011;7738;49.532;11.156;2022-12-07T15:52:52;17.70;;;10.77;;
15273;SDS011;7738;49.532;11.156;2022-12-07T15:55:23;17.33;;;11.83;;
15273;SDS011;7738;49.532;11.156;2022-12-07T15:57:55;17.57;;;9.80;;